sensor_id;sensor_type;location;lat;lon;timestamp;P1;durP1;ratioP1;P2;durP2;ratioP2
8584;SDS011;7180;52.742;11.420;2022-12-07T00:01:03;20.90;;;17.97;;
8584;SDS011;7180;52.742;11.420;2022-12-07T00:03:29;21.63;;;18.17;;
8584;SDS011;7180;52.742;11.420;2022-12-07T00:05:56;22.17;;;19.17;;
8584;SDS011;7180;52.742;11.420;2022-12-07T00:08:22;22.33;;;19.07;;
8584;SDS011;7180;52.742;11.420;2022-12-07T00:10:47;22.77;;;18.90;;
8584;SDS011;7180;52.742;11.420;2022-12-07T00:13:12;20.90;;;18.27;;
8584;SDS011;7180;52.742;11.420;2022-12-07T00:15:37;23.83;;;20.63;;
8584;SDS011;7180;52.742;11.420;2022-12-07T00:18:02;20.60;;;18.43;;
8584;SDS011;7180;52.742;11.420;2022-12-07T00:20:28;20.90;;;18.63;;
8584;SDS011;7180;52.742;11.420;2022-12-07T00:22:53;20.53;;;18.30;;
8584;SDS011;7180;52.742;11.420;2022-12-07T00:25:18;21.53;;;19.20;;
8584;SDS011;7180;52.742;11.420;2022-12-07T00:27:43;21.37;;;19.07;;
8584;SDS011;7180;52.742;11.420;2022-12-07T00:30:09;22.07;;;19.30;;
8584;SDS011;7180;52.742;11.420;2022-12-07T00:32:34;25.40;;;20.03;;
8584;SDS011;7180;52.742;11.420;2022-12-07T00:34:59;22.50;;;19.60;;
8584;SDS011;7180;52.742;11.420;2022-12-07T00:37:24;21.83;;;19.50;;
8584;SDS011;7180;52.742;11.420;2022-12-07T00:39:49;22.67;;;18.80;;
8584;SDS011;7180;52.742;11.420;2022-12-07T00:42:14;24.47;;;20.00;;
8584;SDS011;7180;52.742;11.420;2022-12-07T00:44:40;21.27;;;19.03;;
8584;SDS011;7180;52.742;11.420;2022-12-07T00:47:05;22.53;;;19.97;;
8584;SDS011;7180;52.742;11.420;2022-12-07T00:49:30;24.97;;;20.00;;
8584;SDS011;7180;52.742;11.420;2022-12-07T00:51:55;24.63;;;21.23;;
8584;SDS011;7180;52.742;11.420;2022-12-07T00:54:20;24.03;;;20.83;;
8584;SDS011;7180;52.742;11.420;2022-12-07T00:56:46;22.83;;;20.10;;
8584;SDS011;7180;52.742;11.420;2022-12-07T00:59:12;24.63;;;20.83;;
8584;SDS011;7180;52.742;11.420;2022-12-07T01:01:38;24.73;;;21.73;;
8584;SDS011;7180;52.742;11.420;2022-12-07T01:04:04;24.13;;;20.17;;
8584;SDS011;7180;52.742;11.420;2022-12-07T01:06:29;25.43;;;21.70;;
8584;SDS011;7180;52.742;11.420;2022-12-07T01:08:55;27.53;;;22.83;;
8584;SDS011;7180;52.742;11.420;2022-12-07T01:11:21;26.33;;;22.50;;
8584;SDS011;7180;52.742;11.420;2022-12-07T01:13:48;25.60;;;21.83;;
8584;SDS011;7180;52.742;11.420;2022-12-07T01:16:14;26.03;;;21.57;;
8584;SDS011;7180;52.742;11.420;2022-12-07T01:18:40;27.93;;;22.27;;
8584;SDS011;7180;52.742;11.420;2022-12-07T01:21:06;25.87;;;22.37;;
8584;SDS011;7180;52.742;11.420;2022-12-07T01:23:32;26.60;;;22.27;;
8584;SDS011;7180;52.742;11.420;2022-12-07T01:25:58;27.07;;;23.00;;
8584;SDS011;7180;52.742;11.420;2022-12-07T01:28:23;27.37;;;23.27;;
8584;SDS011;7180;52.742;11.420;2022-12-07T01:30:58;26.50;;;21.77;;
8584;SDS011;7180;52.742;11.420;2022-12-07T01:33:24;28.47;;;22.83;;
8584;SDS011;7180;52.742;11.420;2022-12-07T01:35:49;28.37;;;23.23;;
8584;SDS011;7180;52.742;11.420;2022-12-07T01:38:14;28.60;;;23.23;;
8584;SDS011;7180;52.742;11.420;2022-12-07T01:40:39;32.83;;;24.77;;
8584;SDS011;7180;52.742;11.420;2022-12-07T01:43:11;29.07;;;24.13;;
8584;SDS011;7180;52.742;11.420;2022-12-07T01:45:40;28.73;;;23.77;;
8584;SDS011;7180;52.742;11.420;2022-12-07T01:48:05;33.73;;;24.30;;
8584;SDS011;7180;52.742;11.420;2022-12-07T01:50:31;29.20;;;24.20;;
8584;SDS011;7180;52.742;11.420;2022-12-07T01:52:57;27.53;;;23.83;;
8584;SDS011;7180;52.742;11.420;2022-12-07T01:55:23;29.07;;;23.67;;
8584;SDS011;7180;52.742;11.420;2022-12-07T01:57:49;26.87;;;23.33;;
8584;SDS011;7180;52.742;11.420;2022-12-07T02:00:16;29.27;;;24.17;;
8584;SDS011;7180;52.742;11.420;2022-12-07T02:03:29;30.90;;;25.27;;
8584;SDS011;7180;52.742;11.420;2022-12-07T02:05:27;27.27;;;22.93;;
8584;SDS011;7180;52.742;11.420;2022-12-07T02:07:53;27.57;;;23.40;;
8584;SDS011;7180;52.742;11.420;2022-12-07T02:10:20;26.97;;;23.17;;
8584;SDS011;7180;52.742;11.420;2022-12-07T02:12:47;28.73;;;24.17;;
8584;SDS011;7180;52.742;11.420;2022-12-07T02:15:13;27.97;;;23.63;;
8584;SDS011;7180;52.742;11.420;2022-12-07T02:25:22;29.40;;;23.23;;
8584;SDS011;7180;52.742;11.420;2022-12-07T02:27:57;28.77;;;22.90;;
8584;SDS011;7180;52.742;11.420;2022-12-07T02:30:24;26.30;;;21.57;;
8584;SDS011;7180;52.742;11.420;2022-12-07T02:35:28;26.20;;;21.43;;
8584;SDS011;7180;52.742;11.420;2022-12-07T02:38:02;24.10;;;21.00;;
8584;SDS011;7180;52.742;11.420;2022-12-07T02:43:02;23.08;;;20.85;;
8584;SDS011;7180;52.742;11.420;2022-12-07T02:45:29;21.77;;;19.60;;
8584;SDS011;7180;52.742;11.420;2022-12-07T02:47:56;21.13;;;18.83;;
8584;SDS011;7180;52.742;11.420;2022-12-07T02:50:23;20.33;;;18.23;;
8584;SDS011;7180;52.742;11.420;2022-12-07T02:52:49;21.93;;;18.40;;
8584;SDS011;7180;52.742;11.420;2022-12-07T02:55:14;19.73;;;17.73;;
8584;SDS011;7180;52.742;11.420;2022-12-07T03:00:10;20.30;;;18.30;;
8584;SDS011;7180;52.742;11.420;2022-12-07T03:10:30;18.07;;;16.37;;
8584;SDS011;7180;52.742;11.420;2022-12-07T03:15:23;17.83;;;16.07;;
8584;SDS011;7180;52.742;11.420;2022-12-07T03:17:51;17.90;;;16.10;;
8584;SDS011;7180;52.742;11.420;2022-12-07T03:20:19;18.27;;;16.43;;
8584;SDS011;7180;52.742;11.420;2022-12-07T03:22:45;18.33;;;16.63;;
8584;SDS011;7180;52.742;11.420;2022-12-07T03:25:12;18.93;;;17.17;;
8584;SDS011;7180;52.742;11.420;2022-12-07T03:27:41;18.97;;;17.27;;
8584;SDS011;7180;52.742;11.420;2022-12-07T03:30:10;17.30;;;15.70;;
8584;SDS011;7180;52.742;11.420;2022-12-07T03:32:39;17.97;;;16.23;;
8584;SDS011;7180;52.742;11.420;2022-12-07T03:37:55;17.43;;;15.93;;
8584;SDS011;7180;52.742;11.420;2022-12-07T03:40:26;18.50;;;16.63;;
8584;SDS011;7180;52.742;11.420;2022-12-07T03:42:53;17.90;;;16.20;;
8584;SDS011;7180;52.742;11.420;2022-12-07T03:45:19;17.50;;;15.90;;
8584;SDS011;7180;52.742;11.420;2022-12-07T03:47:48;17.77;;;16.07;;
8584;SDS011;7180;52.742;11.420;2022-12-07T03:50:17;17.37;;;15.80;;
8584;SDS011;7180;52.742;11.420;2022-12-07T03:52:44;17.30;;;15.80;;
8584;SDS011;7180;52.742;11.420;2022-12-07T03:55:14;17.67;;;16.07;;
8584;SDS011;7180;52.742;11.420;2022-12-07T03:57:41;16.87;;;15.47;;
8584;SDS011;7180;52.742;11.420;2022-12-07T04:00:07;17.17;;;15.43;;
8584;SDS011;7180;52.742;11.420;2022-12-07T04:02:33;17.13;;;15.37;;
8584;SDS011;7180;52.742;11.420;2022-12-07T04:04:59;16.67;;;14.93;;
8584;SDS011;7180;52.742;11.420;2022-12-07T04:07:24;16.07;;;14.60;;
8584;SDS011;7180;52.742;11.420;2022-12-07T04:09:49;15.90;;;14.50;;
8584;SDS011;7180;52.742;11.420;2022-12-07T04:12:14;17.60;;;16.00;;
8584;SDS011;7180;52.742;11.420;2022-12-07T04:14:40;16.77;;;15.27;;
8584;SDS011;7180;52.742;11.420;2022-12-07T04:17:05;16.40;;;14.90;;
8584;SDS011;7180;52.742;11.420;2022-12-07T04:19:31;16.20;;;14.70;;
8584;SDS011;7180;52.742;11.420;2022-12-07T04:21:57;15.83;;;14.43;;
8584;SDS011;7180;52.742;11.420;2022-12-07T04:24:22;16.23;;;14.63;;
8584;SDS011;7180;52.742;11.420;2022-12-07T04:26:48;16.13;;;14.53;;
8584;SDS011;7180;52.742;11.420;2022-12-07T04:29:13;15.57;;;14.07;;
8584;SDS011;7180;52.742;11.420;2022-12-07T04:31:38;16.17;;;14.27;;
8584;SDS011;7180;52.742;11.420;2022-12-07T04:34:04;14.97;;;13.57;;
8584;SDS011;7180;52.742;11.420;2022-12-07T04:36:29;15.23;;;13.63;;
8584;SDS011;7180;52.742;11.420;2022-12-07T04:38:55;15.03;;;13.73;;
8584;SDS011;7180;52.742;11.420;2022-12-07T04:41:21;15.10;;;13.60;;
8584;SDS011;7180;52.742;11.420;2022-12-07T04:43:52;15.20;;;13.60;;
8584;SDS011;7180;52.742;11.420;2022-12-07T04:46:17;14.93;;;13.53;;
8584;SDS011;7180;52.742;11.420;2022-12-07T04:48:42;14.07;;;12.83;;
8584;SDS011;7180;52.742;11.420;2022-12-07T04:51:07;14.50;;;13.13;;
8584;SDS011;7180;52.742;11.420;2022-12-07T04:53:33;14.47;;;12.67;;
8584;SDS011;7180;52.742;11.420;2022-12-07T04:55:58;13.97;;;12.67;;
8584;SDS011;7180;52.742;11.420;2022-12-07T04:58:23;14.50;;;13.20;;
8584;SDS011;7180;52.742;11.420;2022-12-07T05:00:48;14.30;;;13.20;;
8584;SDS011;7180;52.742;11.420;2022-12-07T05:03:13;13.67;;;12.53;;
8584;SDS011;7180;52.742;11.420;2022-12-07T05:05:42;14.03;;;12.93;;
8584;SDS011;7180;52.742;11.420;2022-12-07T05:08:07;12.87;;;11.77;;
8584;SDS011;7180;52.742;11.420;2022-12-07T05:10:32;13.10;;;12.10;;
8584;SDS011;7180;52.742;11.420;2022-12-07T05:12:57;12.37;;;11.37;;
8584;SDS011;7180;52.742;11.420;2022-12-07T05:15:22;12.73;;;11.73;;
8584;SDS011;7180;52.742;11.420;2022-12-07T05:17:48;13.70;;;12.47;;
8584;SDS011;7180;52.742;11.420;2022-12-07T05:20:13;12.17;;;11.13;;
8584;SDS011;7180;52.742;11.420;2022-12-07T05:22:38;12.23;;;11.13;;
8584;SDS011;7180;52.742;11.420;2022-12-07T05:25:03;12.47;;;11.57;;
8584;SDS011;7180;52.742;11.420;2022-12-07T05:27:29;12.00;;;11.03;;
8584;SDS011;7180;52.742;11.420;2022-12-07T05:29:54;11.37;;;10.57;;
8584;SDS011;7180;52.742;11.420;2022-12-07T05:32:19;12.50;;;11.50;;
8584;SDS011;7180;52.742;11.420;2022-12-07T05:34:44;12.40;;;11.50;;
8584;SDS011;7180;52.742;11.420;2022-12-07T05:37:09;12.13;;;11.30;;
8584;SDS011;7180;52.742;11.420;2022-12-07T05:39:35;12.10;;;11.20;;
8584;SDS011;7180;52.742;11.420;2022-12-07T05:42:00;11.40;;;10.60;;
8584;SDS011;7180;52.742;11.420;2022-12-07T05:44:41;11.87;;;10.87;;
8584;SDS011;7180;52.742;11.420;2022-12-07T05:47:06;11.93;;;11.13;;
8584;SDS011;7180;52.742;11.420;2022-12-07T05:49:32;11.43;;;10.53;;
8584;SDS011;7180;52.742;11.420;2022-12-07T05:51:57;12.00;;;11.10;;
8584;SDS011;7180;52.742;11.420;2022-12-07T05:54:22;11.37;;;10.50;;
8584;SDS011;7180;52.742;11.420;2022-12-07T05:56:47;11.40;;;10.50;;
8584;SDS011;7180;52.742;11.420;2022-12-07T05:59:13;10.97;;;10.27;;
8584;SDS011;7180;52.742;11.420;2022-12-07T06:01:47;10.87;;;10.17;;
8584;SDS011;7180;52.742;11.420;2022-12-07T06:04:12;11.90;;;11.00;;
8584;SDS011;7180;52.742;11.420;2022-12-07T06:06:38;11.40;;;10.40;;
8584;SDS011;7180;52.742;11.420;2022-12-07T06:09:03;11.40;;;10.60;;
8584;SDS011;7180;52.742;11.420;2022-12-07T06:11:29;11.67;;;10.77;;
8584;SDS011;7180;52.742;11.420;2022-12-07T06:14:12;10.97;;;10.10;;
8584;SDS011;7180;52.742;11.420;2022-12-07T06:16:38;11.17;;;10.37;;
8584;SDS011;7180;52.742;11.420;2022-12-07T06:19:03;12.07;;;11.07;;
8584;SDS011;7180;52.742;11.420;2022-12-07T06:21:28;11.83;;;10.93;;
8584;SDS011;7180;52.742;11.420;2022-12-07T06:23:53;11.90;;;11.10;;
8584;SDS011;7180;52.742;11.420;2022-12-07T06:26:19;12.33;;;11.13;;
8584;SDS011;7180;52.742;11.420;2022-12-07T06:28:44;12.30;;;11.33;;
8584;SDS011;7180;52.742;11.420;2022-12-07T06:31:09;11.90;;;11.00;;
8584;SDS011;7180;52.742;11.420;2022-12-07T06:33:34;12.30;;;11.50;;
8584;SDS011;7180;52.742;11.420;2022-12-07T06:36:00;12.77;;;11.77;;
8584;SDS011;7180;52.742;11.420;2022-12-07T06:38:25;11.60;;;10.70;;
8584;SDS011;7180;52.742;11.420;2022-12-07T06:40:50;11.60;;;10.80;;
8584;SDS011;7180;52.742;11.420;2022-12-07T06:43:15;12.13;;;11.23;;
8584;SDS011;7180;52.742;11.420;2022-12-07T06:45:41;12.17;;;11.20;;
8584;SDS011;7180;52.742;11.420;2022-12-07T06:48:06;12.00;;;11.20;;
8584;SDS011;7180;52.742;11.420;2022-12-07T06:50:31;12.10;;;11.20;;
8584;SDS011;7180;52.742;11.420;2022-12-07T06:52:57;12.63;;;11.73;;
8584;SDS011;7180;52.742;11.420;2022-12-07T06:55:22;11.87;;;10.90;;
8584;SDS011;7180;52.742;11.420;2022-12-07T06:57:47;11.90;;;11.10;;
8584;SDS011;7180;52.742;11.420;2022-12-07T07:00:13;11.73;;;10.63;;
8584;SDS011;7180;52.742;11.420;2022-12-07T07:02:38;12.03;;;10.93;;
8584;SDS011;7180;52.742;11.420;2022-12-07T07:05:03;11.57;;;10.67;;
8584;SDS011;7180;52.742;11.420;2022-12-07T07:07:29;11.83;;;10.97;;
8584;SDS011;7180;52.742;11.420;2022-12-07T07:09:54;12.30;;;11.40;;
8584;SDS011;7180;52.742;11.420;2022-12-07T07:12:19;12.20;;;11.23;;
8584;SDS011;7180;52.742;11.420;2022-12-07T07:14:44;11.67;;;10.87;;
8584;SDS011;7180;52.742;11.420;2022-12-07T07:17:10;12.33;;;11.43;;
8584;SDS011;7180;52.742;11.420;2022-12-07T07:19:35;11.13;;;10.33;;
8584;SDS011;7180;52.742;11.420;2022-12-07T07:22:02;11.70;;;10.67;;
8584;SDS011;7180;52.742;11.420;2022-12-07T07:24:27;11.27;;;10.57;;
8584;SDS011;7180;52.742;11.420;2022-12-07T07:26:52;11.70;;;10.70;;
8584;SDS011;7180;52.742;11.420;2022-12-07T07:29:17;11.43;;;10.63;;
8584;SDS011;7180;52.742;11.420;2022-12-07T07:31:43;11.83;;;11.03;;
8584;SDS011;7180;52.742;11.420;2022-12-07T07:34:08;11.03;;;10.13;;
8584;SDS011;7180;52.742;11.420;2022-12-07T07:36:33;11.77;;;10.90;;
8584;SDS011;7180;52.742;11.420;2022-12-07T07:38:58;11.20;;;10.50;;
8584;SDS011;7180;52.742;11.420;2022-12-07T07:41:23;11.40;;;10.57;;
8584;SDS011;7180;52.742;11.420;2022-12-07T07:43:49;11.17;;;10.40;;
8584;SDS011;7180;52.742;11.420;2022-12-07T07:46:14;11.20;;;10.50;;
8584;SDS011;7180;52.742;11.420;2022-12-07T07:48:39;11.37;;;10.67;;
8584;SDS011;7180;52.742;11.420;2022-12-07T07:51:05;11.33;;;10.53;;
8584;SDS011;7180;52.742;11.420;2022-12-07T07:53:31;11.20;;;10.40;;
8584;SDS011;7180;52.742;11.420;2022-12-07T07:55:56;10.97;;;10.10;;
8584;SDS011;7180;52.742;11.420;2022-12-07T07:58:21;10.33;;;9.73;;
8584;SDS011;7180;52.742;11.420;2022-12-07T08:00:46;10.47;;;9.67;;
8584;SDS011;7180;52.742;11.420;2022-12-07T08:03:12;10.63;;;9.93;;
8584;SDS011;7180;52.742;11.420;2022-12-07T08:05:37;10.10;;;9.30;;
8584;SDS011;7180;52.742;11.420;2022-12-07T08:08:03;10.97;;;10.10;;
8584;SDS011;7180;52.742;11.420;2022-12-07T08:10:28;11.40;;;10.60;;
8584;SDS011;7180;52.742;11.420;2022-12-07T08:12:53;11.67;;;10.90;;
8584;SDS011;7180;52.742;11.420;2022-12-07T08:15:38;11.57;;;10.70;;
8584;SDS011;7180;52.742;11.420;2022-12-07T08:18:04;11.27;;;10.43;;
8584;SDS011;7180;52.742;11.420;2022-12-07T08:20:30;11.40;;;10.60;;
8584;SDS011;7180;52.742;11.420;2022-12-07T08:22:56;11.03;;;10.23;;
8584;SDS011;7180;52.742;11.420;2022-12-07T08:25:21;12.23;;;11.43;;
8584;SDS011;7180;52.742;11.420;2022-12-07T08:27:49;12.07;;;10.97;;
8584;SDS011;7180;52.742;11.420;2022-12-07T08:30:14;11.63;;;10.83;;
8584;SDS011;7180;52.742;11.420;2022-12-07T08:32:39;11.13;;;10.43;;
8584;SDS011;7180;52.742;11.420;2022-12-07T08:35:05;11.43;;;10.67;;
8584;SDS011;7180;52.742;11.420;2022-12-07T08:37:31;11.27;;;10.47;;
8584;SDS011;7180;52.742;11.420;2022-12-07T08:39:56;11.83;;;11.03;;
8584;SDS011;7180;52.742;11.420;2022-12-07T08:42:21;11.77;;;10.97;;
8584;SDS011;7180;52.742;11.420;2022-12-07T08:44:48;11.03;;;10.33;;
8584;SDS011;7180;52.742;11.420;2022-12-07T08:47:13;11.23;;;10.33;;
8584;SDS011;7180;52.742;11.420;2022-12-07T08:49:41;11.70;;;10.90;;
8584;SDS011;7180;52.742;11.420;2022-12-07T08:52:08;12.20;;;11.27;;
8584;SDS011;7180;52.742;11.420;2022-12-07T08:54:36;12.07;;;11.13;;
8584;SDS011;7180;52.742;11.420;2022-12-07T08:57:03;12.07;;;11.07;;
8584;SDS011;7180;52.742;11.420;2022-12-07T08:59:29;12.50;;;11.60;;
8584;SDS011;7180;52.742;11.420;2022-12-07T09:01:55;11.53;;;10.73;;
8584;SDS011;7180;52.742;11.420;2022-12-07T09:04:20;11.87;;;10.97;;
8584;SDS011;7180;52.742;11.420;2022-12-07T09:06:46;11.13;;;10.37;;
8584;SDS011;7180;52.742;11.420;2022-12-07T09:09:11;11.13;;;10.33;;
8584;SDS011;7180;52.742;11.420;2022-12-07T09:11:37;10.63;;;9.93;;
8584;SDS011;7180;52.742;11.420;2022-12-07T09:14:04;11.40;;;10.50;;
8584;SDS011;7180;52.742;11.420;2022-12-07T09:16:29;11.40;;;10.50;;
8584;SDS011;7180;52.742;11.420;2022-12-07T09:18:54;12.43;;;11.50;;
8584;SDS011;7180;52.742;11.420;2022-12-07T09:21:19;12.20;;;11.30;;
8584;SDS011;7180;52.742;11.420;2022-12-07T09:23:44;12.57;;;11.67;;
8584;SDS011;7180;52.742;11.420;2022-12-07T09:26:09;10.77;;;10.07;;
8584;SDS011;7180;52.742;11.420;2022-12-07T09:28:35;12.40;;;11.50;;
8584;SDS011;7180;52.742;11.420;2022-12-07T09:31:00;11.73;;;10.83;;
8584;SDS011;7180;52.742;11.420;2022-12-07T09:33:25;10.80;;;10.10;;
8584;SDS011;7180;52.742;11.420;2022-12-07T09:35:51;11.20;;;10.50;;
8584;SDS011;7180;52.742;11.420;2022-12-07T09:38:16;11.40;;;10.50;;
8584;SDS011;7180;52.742;11.420;2022-12-07T09:40:42;11.27;;;10.37;;
8584;SDS011;7180;52.742;11.420;2022-12-07T09:43:19;11.77;;;10.70;;
8584;SDS011;7180;52.742;11.420;2022-12-07T09:45:45;11.37;;;10.40;;
8584;SDS011;7180;52.742;11.420;2022-12-07T09:48:18;12.33;;;11.10;;
8584;SDS011;7180;52.742;11.420;2022-12-07T09:50:45;12.60;;;11.60;;
8584;SDS011;7180;52.742;11.420;2022-12-07T09:53:15;12.60;;;11.70;;
8584;SDS011;7180;52.742;11.420;2022-12-07T09:55:41;11.67;;;10.60;;
8584;SDS011;7180;52.742;11.420;2022-12-07T09:58:09;11.37;;;10.67;;
8584;SDS011;7180;52.742;11.420;2022-12-07T10:00:37;12.17;;;11.10;;
8584;SDS011;7180;52.742;11.420;2022-12-07T10:03:03;12.43;;;11.47;;
8584;SDS011;7180;52.742;11.420;2022-12-07T10:07:53;10.47;;;9.77;;
8584;SDS011;7180;52.742;11.420;2022-12-07T10:10:21;10.60;;;9.90;;
8584;SDS011;7180;52.742;11.420;2022-12-07T10:12:55;10.60;;;9.80;;
8584;SDS011;7180;52.742;11.420;2022-12-07T10:15:20;12.10;;;11.10;;
8584;SDS011;7180;52.742;11.420;2022-12-07T10:17:49;12.77;;;11.97;;
8584;SDS011;7180;52.742;11.420;2022-12-07T10:25:21;11.70;;;10.90;;
8584;SDS011;7180;52.742;11.420;2022-12-07T10:28:08;10.80;;;10.10;;
8584;SDS011;7180;52.742;11.420;2022-12-07T10:30:52;12.30;;;11.50;;
8584;SDS011;7180;52.742;11.420;2022-12-07T10:33:27;10.30;;;9.70;;
8584;SDS011;7180;52.742;11.420;2022-12-07T10:35:53;10.90;;;10.20;;
8584;SDS011;7180;52.742;11.420;2022-12-07T10:38:18;11.07;;;10.37;;
8584;SDS011;7180;52.742;11.420;2022-12-07T10:40:43;11.27;;;10.47;;
8584;SDS011;7180;52.742;11.420;2022-12-07T10:45:41;10.07;;;9.50;;
8584;SDS011;7180;52.742;11.420;2022-12-07T10:48:21;10.33;;;9.63;;
8584;SDS011;7180;52.742;11.420;2022-12-07T11:01:30;9.43;;;8.80;;
8584;SDS011;7180;52.742;11.420;2022-12-07T11:09:38;12.80;;;11.73;;
8584;SDS011;7180;52.742;11.420;2022-12-07T11:12:20;11.77;;;10.87;;
8584;SDS011;7180;52.742;11.420;2022-12-07T11:15:00;10.93;;;10.30;;
8584;SDS011;7180;52.742;11.420;2022-12-07T11:22:47;9.60;;;9.00;;
8584;SDS011;7180;52.742;11.420;2022-12-07T11:25:21;9.73;;;8.93;;
8584;SDS011;7180;52.742;11.420;2022-12-07T11:30:23;9.97;;;9.13;;
8584;SDS011;7180;52.742;11.420;2022-12-07T11:38:23;10.90;;;10.10;;
8584;SDS011;7180;52.742;11.420;2022-12-07T11:40:50;10.23;;;9.43;;
8584;SDS011;7180;52.742;11.420;2022-12-07T11:43:26;11.00;;;10.00;;
8584;SDS011;7180;52.742;11.420;2022-12-07T11:45:54;10.63;;;9.80;;
8584;SDS011;7180;52.742;11.420;2022-12-07T11:48:45;10.83;;;10.23;;
8584;SDS011;7180;52.742;11.420;2022-12-07T11:51:07;10.53;;;9.70;;
8584;SDS011;7180;52.742;11.420;2022-12-07T12:03:37;10.40;;;9.60;;
8584;SDS011;7180;52.742;11.420;2022-12-07T13:06:47;9.90;;;9.20;;
8584;SDS011;7180;52.742;11.420;2022-12-07T13:09:18;9.87;;;9.07;;
8584;SDS011;7180;52.742;11.420;2022-12-07T13:11:44;8.97;;;8.47;;
8584;SDS011;7180;52.742;11.420;2022-12-07T13:16:53;9.97;;;9.27;;
8584;SDS011;7180;52.742;11.420;2022-12-07T13:22:03;10.33;;;9.53;;
8584;SDS011;7180;52.742;11.420;2022-12-07T13:24:28;10.10;;;9.40;;
8584;SDS011;7180;52.742;11.420;2022-12-07T13:26:56;10.03;;;9.33;;
8584;SDS011;7180;52.742;11.420;2022-12-07T13:29:22;9.93;;;9.37;;
8584;SDS011;7180;52.742;11.420;2022-12-07T13:31:54;10.20;;;9.50;;
8584;SDS011;7180;52.742;11.420;2022-12-07T13:34:28;10.60;;;9.80;;
8584;SDS011;7180;52.742;11.420;2022-12-07T13:36:54;10.27;;;9.47;;
8584;SDS011;7180;52.742;11.420;2022-12-07T13:39:20;10.50;;;9.80;;
8584;SDS011;7180;52.742;11.420;2022-12-07T13:41:51;10.63;;;9.93;;
8584;SDS011;7180;52.742;11.420;2022-12-07T13:44:17;9.97;;;9.33;;
8584;SDS011;7180;52.742;11.420;2022-12-07T13:51:52;10.68;;;9.95;;
8584;SDS011;7180;52.742;11.420;2022-12-07T13:54:17;18.30;;;16.30;;
8584;SDS011;7180;52.742;11.420;2022-12-07T13:56:43;24.60;;;18.17;;
8584;SDS011;7180;52.742;11.420;2022-12-07T13:59:16;26.83;;;21.73;;
8584;SDS011;7180;52.742;11.420;2022-12-07T14:01:42;19.80;;;17.40;;
8584;SDS011;7180;52.742;11.420;2022-12-07T14:06:48;12.27;;;11.37;;
8584;SDS011;7180;52.742;11.420;2022-12-07T14:09:21;12.50;;;11.27;;
8584;SDS011;7180;52.742;11.420;2022-12-07T14:11:47;12.60;;;11.40;;
8584;SDS011;7180;52.742;11.420;2022-12-07T14:14:14;13.27;;;12.27;;
8584;SDS011;7180;52.742;11.420;2022-12-07T14:16:41;13.30;;;12.10;;
8584;SDS011;7180;52.742;11.420;2022-12-07T14:19:39;16.10;;;14.60;;
8584;SDS011;7180;52.742;11.420;2022-12-07T14:22:05;13.10;;;12.00;;
8584;SDS011;7180;52.742;11.420;2022-12-07T14:24:31;14.57;;;13.10;;
8584;SDS011;7180;52.742;11.420;2022-12-07T14:27:14;12.13;;;11.23;;
8584;SDS011;7180;52.742;11.420;2022-12-07T14:29:41;10.50;;;9.90;;
8584;SDS011;7180;52.742;11.420;2022-12-07T14:34:41;12.07;;;11.37;;
8584;SDS011;7180;52.742;11.420;2022-12-07T14:37:07;11.40;;;10.57;;
8584;SDS011;7180;52.742;11.420;2022-12-07T14:39:34;11.37;;;10.37;;
8584;SDS011;7180;52.742;11.420;2022-12-07T14:41:59;10.90;;;10.20;;
8584;SDS011;7180;52.742;11.420;2022-12-07T14:44:24;11.37;;;10.67;;
8584;SDS011;7180;52.742;11.420;2022-12-07T14:46:49;11.97;;;11.07;;
8584;SDS011;7180;52.742;11.420;2022-12-07T14:49:15;10.90;;;10.30;;
8584;SDS011;7180;52.742;11.420;2022-12-07T14:51:40;11.30;;;10.53;;
8584;SDS011;7180;52.742;11.420;2022-12-07T14:54:06;11.30;;;10.50;;
8584;SDS011;7180;52.742;11.420;2022-12-07T14:56:32;10.57;;;9.77;;
8584;SDS011;7180;52.742;11.420;2022-12-07T14:58:57;11.83;;;10.93;;
8584;SDS011;7180;52.742;11.420;2022-12-07T15:01:22;10.90;;;10.00;;
8584;SDS011;7180;52.742;11.420;2022-12-07T15:03:47;11.00;;;10.30;;
8584;SDS011;7180;52.742;11.420;2022-12-07T15:06:14;11.40;;;10.53;;
8584;SDS011;7180;52.742;11.420;2022-12-07T15:08:39;12.03;;;10.93;;
8584;SDS011;7180;52.742;11.420;2022-12-07T15:11:04;10.53;;;9.73;;
8584;SDS011;7180;52.742;11.420;2022-12-07T15:13:30;10.93;;;10.10;;
8584;SDS011;7180;52.742;11.420;2022-12-07T15:16:16;10.07;;;9.37;;
8584;SDS011;7180;52.742;11.420;2022-12-07T15:18:43;10.07;;;9.27;;
8584;SDS011;7180;52.742;11.420;2022-12-07T15:21:13;10.47;;;9.83;;
8584;SDS011;7180;52.742;11.420;2022-12-07T15:23:38;10.70;;;9.80;;
8584;SDS011;7180;52.742;11.420;2022-12-07T15:26:04;10.97;;;10.07;;
8584;SDS011;7180;52.742;11.420;2022-12-07T15:28:29;11.10;;;10.27;;
8584;SDS011;7180;52.742;11.420;2022-12-07T15:30:54;11.97;;;10.93;;
8584;SDS011;7180;52.742;11.420;2022-12-07T15:33:19;11.10;;;10.23;;
8584;SDS011;7180;52.742;11.420;2022-12-07T15:35:45;11.33;;;10.47;;
8584;SDS011;7180;52.742;11.420;2022-12-07T15:38:10;10.73;;;9.93;;
8584;SDS011;7180;52.742;11.420;2022-12-07T15:40:36;11.10;;;10.30;;
8584;SDS011;7180;52.742;11.420;2022-12-07T15:43:01;12.90;;;11.80;;
8584;SDS011;7180;52.742;11.420;2022-12-07T15:45:27;13.47;;;12.40;;
8584;SDS011;7180;52.742;11.420;2022-12-07T15:47:52;14.30;;;12.87;;
8584;SDS011;7180;52.742;11.420;2022-12-07T15:50:17;12.97;;;11.77;;
8584;SDS011;7180;52.742;11.420;2022-12-07T15:52:42;12.33;;;11.30;;
8584;SDS011;7180;52.742;11.420;2022-12-07T15:55:08;11.73;;;10.90;;
8584;SDS011;7180;52.742;11.420;2022-12-07T15:57:35;13.80;;;12.37;;
8584;SDS011;7180;52.742;11.420;2022-12-07T16:00:02;15.60;;;13.73;;
8584;SDS011;7180;52.742;11.420;2022-12-07T16:02:27;13.33;;;12.30;;
8584;SDS011;7180;52.742;11.420;2022-12-07T16:04:53;12.90;;;11.87;;
8584;SDS011;7180;52.742;11.420;2022-12-07T16:07:18;11.47;;;10.57;;
8584;SDS011;7180;52.742;11.420;2022-12-07T16:09:44;12.27;;;11.17;;
8584;SDS011;7180;52.742;11.420;2022-12-07T16:12:09;11.47;;;10.67;;
8584;SDS011;7180;52.742;11.420;2022-12-07T16:14:35;11.60;;;10.73;;
8584;SDS011;7180;52.742;11.420;2022-12-07T16:17:00;12.00;;;11.00;;
8584;SDS011;7180;52.742;11.420;2022-12-07T16:19:25;11.67;;;10.67;;
8584;SDS011;7180;52.742;11.420;2022-12-07T16:21:51;11.80;;;11.00;;
8584;SDS011;7180;52.742;11.420;2022-12-07T16:24:16;11.20;;;10.40;;
8584;SDS011;7180;52.742;11.420;2022-12-07T16:26:42;10.93;;;10.23;;
8584;SDS011;7180;52.742;11.420;2022-12-07T16:29:09;11.57;;;10.67;;
8584;SDS011;7180;52.742;11.420;2022-12-07T16:31:35;19.43;;;16.77;;
8584;SDS011;7180;52.742;11.420;2022-12-07T16:34:00;18.83;;;16.33;;
8584;SDS011;7180;52.742;11.420;2022-12-07T16:36:25;16.10;;;14.40;;
8584;SDS011;7180;52.742;11.420;2022-12-07T16:38:52;14.87;;;13.47;;
8584;SDS011;7180;52.742;11.420;2022-12-07T16:41:17;15.63;;;14.33;;
8584;SDS011;7180;52.742;11.420;2022-12-07T16:43:42;12.63;;;11.53;;
8584;SDS011;7180;52.742;11.420;2022-12-07T16:46:08;13.97;;;12.87;;
8584;SDS011;7180;52.742;11.420;2022-12-07T16:48:36;12.83;;;11.70;;
8584;SDS011;7180;52.742;11.420;2022-12-07T16:51:03;12.83;;;11.73;;
8584;SDS011;7180;52.742;11.420;2022-12-07T16:53:29;12.37;;;11.37;;
8584;SDS011;7180;52.742;11.420;2022-12-07T16:55:54;11.47;;;10.57;;
8584;SDS011;7180;52.742;11.420;2022-12-07T16:58:19;12.10;;;11.20;;
8584;SDS011;7180;52.742;11.420;2022-12-07T17:00:44;11.30;;;10.40;;
8584;SDS011;7180;52.742;11.420;2022-12-07T17:03:09;11.00;;;10.13;;
8584;SDS011;7180;52.742;11.420;2022-12-07T17:05:39;11.47;;;10.57;;
8584;SDS011;7180;52.742;11.420;2022-12-07T17:08:04;12.53;;;11.43;;